sensor_id;sensor_type;location;lat;lon;timestamp;temperature;humidity
42913;DHT22;50720;54.324;18.558;2023-02-20T00:00:52;4.20;99.90
42913;DHT22;50720;54.324;18.558;2023-02-20T00:03:26;4.20;99.90
42913;DHT22;50720;54.324;18.558;2023-02-20T00:05:56;4.30;99.90
42913;DHT22;50720;54.324;18.558;2023-02-20T00:08:25;4.30;99.90
42913;DHT22;50720;54.324;18.558;2023-02-20T00:10:55;4.40;99.90
42913;DHT22;50720;54.324;18.558;2023-02-20T00:13:24;4.30;99.90
42913;DHT22;50720;54.324;18.558;2023-02-20T00:15:54;4.30;99.90
42913;DHT22;50720;54.324;18.558;2023-02-20T00:18:24;4.30;99.90
42913;DHT22;50720;54.324;18.558;2023-02-20T00:20:54;4.30;99.90
42913;DHT22;50720;54.324;18.558;2023-02-20T00:23:24;4.20;99.90
42913;DHT22;50720;54.324;18.558;2023-02-20T00:25:53;4.30;99.90
42913;DHT22;50720;54.324;18.558;2023-02-20T00:28:22;4.30;99.90
42913;DHT22;50720;54.324;18.558;2023-02-20T00:30:52;4.30;99.90
42913;DHT22;50720;54.324;18.558;2023-02-20T00:33:22;4.30;99.90
42913;DHT22;50720;54.324;18.558;2023-02-20T00:35:56;4.30;99.90
42913;DHT22;50720;54.324;18.558;2023-02-20T00:38:26;4.30;99.90
42913;DHT22;50720;54.324;18.558;2023-02-20T00:40:56;4.30;99.90
42913;DHT22;50720;54.324;18.558;2023-02-20T00:43:26;4.30;99.90
42913;DHT22;50720;54.324;18.558;2023-02-20T00:45:56;4.30;99.90
42913;DHT22;50720;54.324;18.558;2023-02-20T00:48:26;4.30;99.90
42913;DHT22;50720;54.324;18.558;2023-02-20T00:50:57;4.30;99.90
42913;DHT22;50720;54.324;18.558;2023-02-20T00:53:27;4.30;99.90
42913;DHT22;50720;54.324;18.558;2023-02-20T00:55:56;4.30;99.90
42913;DHT22;50720;54.324;18.558;2023-02-20T00:58:26;4.30;99.90
42913;DHT22;50720;54.324;18.558;2023-02-20T01:00:55;4.30;99.90
42913;DHT22;50720;54.324;18.558;2023-02-20T01:03:25;4.40;99.90
42913;DHT22;50720;54.324;18.558;2023-02-20T01:05:54;4.40;99.90
42913;DHT22;50720;54.324;18.558;2023-02-20T01:08:25;4.40;99.90
42913;DHT22;50720;54.324;18.558;2023-02-20T01:10:54;4.40;99.90
42913;DHT22;50720;54.324;18.558;2023-02-20T01:13:24;4.40;99.90
42913;DHT22;50720;54.324;18.558;2023-02-20T01:15:53;4.40;99.90
42913;DHT22;50720;54.324;18.558;2023-02-20T01:18:23;4.40;99.90
42913;DHT22;50720;54.324;18.558;2023-02-20T01:20:52;4.50;99.90
42913;DHT22;50720;54.324;18.558;2023-02-20T01:23:22;4.40;99.90
42913;DHT22;50720;54.324;18.558;2023-02-20T01:25:53;4.40;99.90
42913;DHT22;50720;54.324;18.558;2023-02-20T01:28:23;4.40;99.90
42913;DHT22;50720;54.324;18.558;2023-02-20T01:30:52;4.40;99.90
42913;DHT22;50720;54.324;18.558;2023-02-20T01:33:22;4.40;99.90
42913;DHT22;50720;54.324;18.558;2023-02-20T01:35:52;4.40;99.90
42913;DHT22;50720;54.324;18.558;2023-02-20T01:38:22;4.40;99.90
42913;DHT22;50720;54.324;18.558;2023-02-20T01:40:52;4.40;99.90
42913;DHT22;50720;54.324;18.558;2023-02-20T01:43:22;4.40;99.90
42913;DHT22;50720;54.324;18.558;2023-02-20T01:45:51;4.40;99.90
42913;DHT22;50720;54.324;18.558;2023-02-20T01:48:23;4.40;99.90
42913;DHT22;50720;54.324;18.558;2023-02-20T01:50:56;4.40;99.90
42913;DHT22;50720;54.324;18.558;2023-02-20T01:53:30;4.40;99.90
42913;DHT22;50720;54.324;18.558;2023-02-20T01:56:04;4.40;99.90
42913;DHT22;50720;54.324;18.558;2023-02-20T01:58:40;4.30;99.90
42913;DHT22;50720;54.324;18.558;2023-02-20T02:01:10;4.30;99.90
42913;DHT22;50720;54.324;18.558;2023-02-20T02:03:42;4.30;99.90
42913;DHT22;50720;54.324;18.558;2023-02-20T02:06:14;4.30;99.90
42913;DHT22;50720;54.324;18.558;2023-02-20T02:08:44;4.20;99.90
42913;DHT22;50720;54.324;18.558;2023-02-20T02:11:18;4.20;99.90
42913;DHT22;50720;54.324;18.558;2023-02-20T02:13:48;4.20;99.90
42913;DHT22;50720;54.324;18.558;2023-02-20T02:16:26;4.20;99.90
42913;DHT22;50720;54.324;18.558;2023-02-20T02:19:05;4.20;99.90
42913;DHT22;50720;54.324;18.558;2023-02-20T02:22:04;4.10;99.90
42913;DHT22;50720;54.324;18.558;2023-02-20T02:31:53;4.10;99.90
42913;DHT22;50720;54.324;18.558;2023-02-20T02:37:47;4.10;99.90
42913;DHT22;50720;54.324;18.558;2023-02-20T02:40:24;4.00;99.90
42913;DHT22;50720;54.324;18.558;2023-02-20T02:43:03;4.00;99.90
42913;DHT22;50720;54.324;18.558;2023-02-20T02:45:39;4.00;99.90
42913;DHT22;50720;54.324;18.558;2023-02-20T02:48:16;4.00;99.90
42913;DHT22;50720;54.324;18.558;2023-02-20T02:50:48;4.00;99.90
42913;DHT22;50720;54.324;18.558;2023-02-20T02:53:21;3.90;99.90
42913;DHT22;50720;54.324;18.558;2023-02-20T02:55:50;3.90;99.90
42913;DHT22;50720;54.324;18.558;2023-02-20T02:58:20;3.80;99.90
42913;DHT22;50720;54.324;18.558;2023-02-20T03:00:52;3.90;99.90
42913;DHT22;50720;54.324;18.558;2023-02-20T03:03:25;3.90;99.90
42913;DHT22;50720;54.324;18.558;2023-02-20T03:06:00;3.90;99.90
42913;DHT22;50720;54.324;18.558;2023-02-20T03:08:35;3.90;99.90
42913;DHT22;50720;54.324;18.558;2023-02-20T03:11:09;3.90;99.90
42913;DHT22;50720;54.324;18.558;2023-02-20T03:13:43;3.90;99.90
42913;DHT22;50720;54.324;18.558;2023-02-20T03:16:36;3.90;99.90
42913;DHT22;50720;54.324;18.558;2023-02-20T03:19:12;3.90;99.90
42913;DHT22;50720;54.324;18.558;2023-02-20T03:21:44;3.80;99.90
42913;DHT22;50720;54.324;18.558;2023-02-20T03:24:18;3.80;99.90
42913;DHT22;50720;54.324;18.558;2023-02-20T03:26:50;3.70;99.90
42913;DHT22;50720;54.324;18.558;2023-02-20T03:29:23;3.70;99.90
42913;DHT22;50720;54.324;18.558;2023-02-20T03:31:59;3.60;99.90
42913;DHT22;50720;54.324;18.558;2023-02-20T03:34:48;3.50;99.90
42913;DHT22;50720;54.324;18.558;2023-02-20T03:37:37;3.50;99.90
42913;DHT22;50720;54.324;18.558;2023-02-20T03:40:28;3.40;99.90
42913;DHT22;50720;54.324;18.558;2023-02-20T03:43:18;3.30;99.90
42913;DHT22;50720;54.324;18.558;2023-02-20T03:45:55;3.30;99.90
42913;DHT22;50720;54.324;18.558;2023-02-20T03:48:28;3.20;99.90
42913;DHT22;50720;54.324;18.558;2023-02-20T03:50:59;3.10;99.90
42913;DHT22;50720;54.324;18.558;2023-02-20T03:53:28;3.10;99.90
42913;DHT22;50720;54.324;18.558;2023-02-20T03:56:03;3.00;99.90
42913;DHT22;50720;54.324;18.558;2023-02-20T03:58:37;3.00;99.90
42913;DHT22;50720;54.324;18.558;2023-02-20T04:01:09;2.90;99.90
42913;DHT22;50720;54.324;18.558;2023-02-20T04:03:40;2.90;99.90
42913;DHT22;50720;54.324;18.558;2023-02-20T04:06:14;2.80;99.90
42913;DHT22;50720;54.324;18.558;2023-02-20T04:08:47;2.70;99.90
42913;DHT22;50720;54.324;18.558;2023-02-20T04:11:22;2.60;99.90
42913;DHT22;50720;54.324;18.558;2023-02-20T04:13:54;2.50;99.90
42913;DHT22;50720;54.324;18.558;2023-02-20T04:16:25;2.50;99.90
42913;DHT22;50720;54.324;18.558;2023-02-20T04:18:55;2.40;99.90
42913;DHT22;50720;54.324;18.558;2023-02-20T04:21:28;2.40;99.90
42913;DHT22;50720;54.324;18.558;2023-02-20T04:24:04;2.40;99.90
42913;DHT22;50720;54.324;18.558;2023-02-20T04:26:36;2.30;99.90
42913;DHT22;50720;54.324;18.558;2023-02-20T04:29:06;2.30;99.90
42913;DHT22;50720;54.324;18.558;2023-02-20T04:31:36;2.30;99.90
42913;DHT22;50720;54.324;18.558;2023-02-20T04:34:05;2.30;99.90
42913;DHT22;50720;54.324;18.558;2023-02-20T04:36:35;2.20;99.90
42913;DHT22;50720;54.324;18.558;2023-02-20T04:39:04;2.20;99.90
42913;DHT22;50720;54.324;18.558;2023-02-20T04:41:36;2.20;99.90
42913;DHT22;50720;54.324;18.558;2023-02-20T04:44:05;2.20;99.90
42913;DHT22;50720;54.324;18.558;2023-02-20T04:46:52;2.20;99.90
42913;DHT22;50720;54.324;18.558;2023-02-20T04:49:21;2.10;99.90
42913;DHT22;50720;54.324;18.558;2023-02-20T04:51:52;2.10;99.90
42913;DHT22;50720;54.324;18.558;2023-02-20T04:54:21;2.20;99.90
42913;DHT22;50720;54.324;18.558;2023-02-20T04:56:53;2.20;99.90
42913;DHT22;50720;54.324;18.558;2023-02-20T04:59:22;2.20;99.90
42913;DHT22;50720;54.324;18.558;2023-02-20T05:01:52;2.20;99.90
42913;DHT22;50720;54.324;18.558;2023-02-20T05:04:23;2.30;99.90
42913;DHT22;50720;54.324;18.558;2023-02-20T05:06:53;2.30;99.90
42913;DHT22;50720;54.324;18.558;2023-02-20T05:09:23;2.30;99.90
42913;DHT22;50720;54.324;18.558;2023-02-20T05:11:55;2.40;99.90
42913;DHT22;50720;54.324;18.558;2023-02-20T05:14:24;2.40;99.90
42913;DHT22;50720;54.324;18.558;2023-02-20T05:16:54;2.50;99.90
42913;DHT22;50720;54.324;18.558;2023-02-20T05:19:23;2.60;99.90
42913;DHT22;50720;54.324;18.558;2023-02-20T05:21:53;2.60;99.90
42913;DHT22;50720;54.324;18.558;2023-02-20T05:24:42;2.60;99.90
42913;DHT22;50720;54.324;18.558;2023-02-20T05:27:15;2.70;99.90
42913;DHT22;50720;54.324;18.558;2023-02-20T05:29:45;2.60;99.90
42913;DHT22;50720;54.324;18.558;2023-02-20T05:32:16;2.70;99.90
42913;DHT22;50720;54.324;18.558;2023-02-20T05:34:46;2.70;99.90
42913;DHT22;50720;54.324;18.558;2023-02-20T05:37:17;2.70;99.90
42913;DHT22;50720;54.324;18.558;2023-02-20T05:39:47;2.80;99.90
42913;DHT22;50720;54.324;18.558;2023-02-20T05:42:19;2.70;99.90
42913;DHT22;50720;54.324;18.558;2023-02-20T05:44:49;2.70;99.90
42913;DHT22;50720;54.324;18.558;2023-02-20T05:47:19;2.70;99.90
42913;DHT22;50720;54.324;18.558;2023-02-20T05:49:49;2.70;99.90
42913;DHT22;50720;54.324;18.558;2023-02-20T05:52:18;2.70;99.90
42913;DHT22;50720;54.324;18.558;2023-02-20T05:54:48;2.60;99.90
42913;DHT22;50720;54.324;18.558;2023-02-20T05:57:19;2.60;99.90
42913;DHT22;50720;54.324;18.558;2023-02-20T05:59:48;2.60;99.90
42913;DHT22;50720;54.324;18.558;2023-02-20T06:02:18;2.60;99.90
42913;DHT22;50720;54.324;18.558;2023-02-20T06:04:47;2.50;99.90
42913;DHT22;50720;54.324;18.558;2023-02-20T06:07:17;2.50;99.90
42913;DHT22;50720;54.324;18.558;2023-02-20T06:09:46;2.50;99.90
42913;DHT22;50720;54.324;18.558;2023-02-20T06:12:18;2.40;99.90
42913;DHT22;50720;54.324;18.558;2023-02-20T06:14:47;2.40;99.90
42913;DHT22;50720;54.324;18.558;2023-02-20T06:17:17;2.40;99.90
42913;DHT22;50720;54.324;18.558;2023-02-20T06:19:48;2.30;99.90
42913;DHT22;50720;54.324;18.558;2023-02-20T06:22:18;2.30;99.90
42913;DHT22;50720;54.324;18.558;2023-02-20T06:24:48;2.30;99.90
42913;DHT22;50720;54.324;18.558;2023-02-20T06:27:19;2.30;99.90
42913;DHT22;50720;54.324;18.558;2023-02-20T06:29:48;2.30;99.90
42913;DHT22;50720;54.324;18.558;2023-02-20T06:32:18;2.30;99.90
42913;DHT22;50720;54.324;18.558;2023-02-20T06:34:47;2.30;99.90
42913;DHT22;50720;54.324;18.558;2023-02-20T06:37:17;2.30;99.90
42913;DHT22;50720;54.324;18.558;2023-02-20T06:39:46;2.20;99.90
42913;DHT22;50720;54.324;18.558;2023-02-20T06:42:18;2.30;99.90
42913;DHT22;50720;54.324;18.558;2023-02-20T06:44:48;2.30;99.90
42913;DHT22;50720;54.324;18.558;2023-02-20T06:47:17;2.30;99.90
42913;DHT22;50720;54.324;18.558;2023-02-20T06:49:47;2.30;99.90
42913;DHT22;50720;54.324;18.558;2023-02-20T06:52:17;2.20;99.90
42913;DHT22;50720;54.324;18.558;2023-02-20T06:54:46;2.20;99.90
42913;DHT22;50720;54.324;18.558;2023-02-20T06:57:18;2.20;99.90
42913;DHT22;50720;54.324;18.558;2023-02-20T06:59:47;2.20;99.90
42913;DHT22;50720;54.324;18.558;2023-02-20T07:02:17;2.20;99.90
42913;DHT22;50720;54.324;18.558;2023-02-20T07:04:47;2.20;99.90
42913;DHT22;50720;54.324;18.558;2023-02-20T07:07:17;2.20;99.90
42913;DHT22;50720;54.324;18.558;2023-02-20T07:09:46;2.20;99.90
42913;DHT22;50720;54.324;18.558;2023-02-20T07:12:18;2.20;99.90
42913;DHT22;50720;54.324;18.558;2023-02-20T07:14:49;2.10;99.90
42913;DHT22;50720;54.324;18.558;2023-02-20T07:17:19;2.10;99.90
42913;DHT22;50720;54.324;18.558;2023-02-20T07:19:49;2.10;99.90
42913;DHT22;50720;54.324;18.558;2023-02-20T07:22:18;2.10;99.90
42913;DHT22;50720;54.324;18.558;2023-02-20T07:24:49;2.10;99.90
42913;DHT22;50720;54.324;18.558;2023-02-20T07:27:21;2.00;99.90
42913;DHT22;50720;54.324;18.558;2023-02-20T07:29:50;2.00;99.90
42913;DHT22;50720;54.324;18.558;2023-02-20T07:32:20;2.00;99.90
42913;DHT22;50720;54.324;18.558;2023-02-20T07:34:50;1.90;99.90
42913;DHT22;50720;54.324;18.558;2023-02-20T07:37:31;2.00;99.90
42913;DHT22;50720;54.324;18.558;2023-02-20T07:40:01;1.90;99.90
42913;DHT22;50720;54.324;18.558;2023-02-20T07:42:32;1.90;99.90
42913;DHT22;50720;54.324;18.558;2023-02-20T07:45:01;1.90;99.90
42913;DHT22;50720;54.324;18.558;2023-02-20T07:47:31;1.90;99.90
42913;DHT22;50720;54.324;18.558;2023-02-20T07:50:00;1.80;99.90
42913;DHT22;50720;54.324;18.558;2023-02-20T07:52:30;1.90;99.90
42913;DHT22;50720;54.324;18.558;2023-02-20T07:54:59;1.80;99.90
42913;DHT22;50720;54.324;18.558;2023-02-20T07:57:32;1.80;99.90
42913;DHT22;50720;54.324;18.558;2023-02-20T08:00:02;1.80;99.90
42913;DHT22;50720;54.324;18.558;2023-02-20T08:02:32;1.80;99.90
42913;DHT22;50720;54.324;18.558;2023-02-20T08:05:02;1.80;99.90
42913;DHT22;50720;54.324;18.558;2023-02-20T08:07:32;1.80;99.90
42913;DHT22;50720;54.324;18.558;2023-02-20T08:10:01;1.80;99.90
42913;DHT22;50720;54.324;18.558;2023-02-20T08:12:33;1.80;99.90
42913;DHT22;50720;54.324;18.558;2023-02-20T08:15:02;1.70;99.90
42913;DHT22;50720;54.324;18.558;2023-02-20T08:17:32;1.70;99.90
42913;DHT22;50720;54.324;18.558;2023-02-20T08:20:14;1.70;99.90
42913;DHT22;50720;54.324;18.558;2023-02-20T08:22:44;1.70;99.90
42913;DHT22;50720;54.324;18.558;2023-02-20T08:25:15;1.80;99.90
42913;DHT22;50720;54.324;18.558;2023-02-20T08:27:48;1.80;99.90
42913;DHT22;50720;54.324;18.558;2023-02-20T08:30:20;1.80;99.90
42913;DHT22;50720;54.324;18.558;2023-02-20T08:32:51;1.80;99.90
42913;DHT22;50720;54.324;18.558;2023-02-20T08:35:22;1.70;99.90
42913;DHT22;50720;54.324;18.558;2023-02-20T08:37:52;1.80;99.90
42913;DHT22;50720;54.324;18.558;2023-02-20T08:40:21;1.80;99.90
42913;DHT22;50720;54.324;18.558;2023-02-20T08:42:53;1.90;99.90
42913;DHT22;50720;54.324;18.558;2023-02-20T08:45:22;2.00;99.90
42913;DHT22;50720;54.324;18.558;2023-02-20T08:47:55;2.10;99.90
42913;DHT22;50720;54.324;18.558;2023-02-20T08:50:28;2.20;99.90
42913;DHT22;50720;54.324;18.558;2023-02-20T08:52:58;2.30;99.90
42913;DHT22;50720;54.324;18.558;2023-02-20T08:55:27;2.40;99.90
42913;DHT22;50720;54.324;18.558;2023-02-20T08:57:59;2.50;99.90
42913;DHT22;50720;54.324;18.558;2023-02-20T09:00:28;2.50;99.90
42913;DHT22;50720;54.324;18.558;2023-02-20T09:03:01;2.60;99.90
42913;DHT22;50720;54.324;18.558;2023-02-20T09:05:34;2.70;99.90
42913;DHT22;50720;54.324;18.558;2023-02-20T09:08:06;2.70;99.90
42913;DHT22;50720;54.324;18.558;2023-02-20T09:10:35;2.70;99.90
42913;DHT22;50720;54.324;18.558;2023-02-20T09:13:07;2.80;99.90
42913;DHT22;50720;54.324;18.558;2023-02-20T09:15:36;2.90;99.90
42913;DHT22;50720;54.324;18.558;2023-02-20T09:18:10;2.90;99.90
42913;DHT22;50720;54.324;18.558;2023-02-20T09:20:40;3.00;99.90
42913;DHT22;50720;54.324;18.558;2023-02-20T09:23:10;3.00;99.90
42913;DHT22;50720;54.324;18.558;2023-02-20T09:25:40;3.00;99.90
42913;DHT22;50720;54.324;18.558;2023-02-20T09:28:12;3.20;99.90
42913;DHT22;50720;54.324;18.558;2023-02-20T09:30:41;3.30;99.90
42913;DHT22;50720;54.324;18.558;2023-02-20T09:33:11;3.40;99.90
42913;DHT22;50720;54.324;18.558;2023-02-20T09:35:41;3.40;99.90
42913;DHT22;50720;54.324;18.558;2023-02-20T09:38:10;3.50;99.90
42913;DHT22;50720;54.324;18.558;2023-02-20T09:40:40;3.50;99.90
42913;DHT22;50720;54.324;18.558;2023-02-20T09:43:16;3.50;99.90
42913;DHT22;50720;54.324;18.558;2023-02-20T09:45:55;3.60;99.90
42913;DHT22;50720;54.324;18.558;2023-02-20T09:48:37;3.60;99.90
42913;DHT22;50720;54.324;18.558;2023-02-20T09:51:13;3.70;99.90
42913;DHT22;50720;54.324;18.558;2023-02-20T09:53:50;3.70;99.90
42913;DHT22;50720;54.324;18.558;2023-02-20T09:56:25;3.70;99.90
42913;DHT22;50720;54.324;18.558;2023-02-20T09:59:03;3.80;99.90
42913;DHT22;50720;54.324;18.558;2023-02-20T10:01:36;3.90;99.90
42913;DHT22;50720;54.324;18.558;2023-02-20T10:04:12;3.90;99.90
42913;DHT22;50720;54.324;18.558;2023-02-20T10:06:43;4.00;99.90
42913;DHT22;50720;54.324;18.558;2023-02-20T10:09:14;4.00;99.90
42913;DHT22;50720;54.324;18.558;2023-02-20T10:11:57;4.00;99.90
42913;DHT22;50720;54.324;18.558;2023-02-20T10:14:50;4.00;99.90
42913;DHT22;50720;54.324;18.558;2023-02-20T10:17:33;4.10;99.90
42913;DHT22;50720;54.324;18.558;2023-02-20T10:20:11;4.20;99.90
42913;DHT22;50720;54.324;18.558;2023-02-20T10:22:48;4.20;99.90
42913;DHT22;50720;54.324;18.558;2023-02-20T10:25:24;4.30;99.90
42913;DHT22;50720;54.324;18.558;2023-02-20T10:28:02;4.30;99.90
42913;DHT22;50720;54.324;18.558;2023-02-20T10:30:40;4.30;99.90
42913;DHT22;50720;54.324;18.558;2023-02-20T10:33:21;4.40;99.90
42913;DHT22;50720;54.324;18.558;2023-02-20T10:35:58;4.40;99.90
42913;DHT22;50720;54.324;18.558;2023-02-20T10:38:37;4.40;99.90
42913;DHT22;50720;54.324;18.558;2023-02-20T10:41:15;4.50;99.90
42913;DHT22;50720;54.324;18.558;2023-02-20T10:43:51;4.50;99.90
42913;DHT22;50720;54.324;18.558;2023-02-20T10:46:31;4.60;99.90
42913;DHT22;50720;54.324;18.558;2023-02-20T10:49:23;4.60;99.90
42913;DHT22;50720;54.324;18.558;2023-02-20T10:52:00;4.80;99.90
42913;DHT22;50720;54.324;18.558;2023-02-20T10:54:36;4.80;99.90
42913;DHT22;50720;54.324;18.558;2023-02-20T10:57:13;4.90;99.90
42913;DHT22;50720;54.324;18.558;2023-02-20T10:59:49;5.00;99.90
42913;DHT22;50720;54.324;18.558;2023-02-20T11:02:27;5.10;99.90
42913;DHT22;50720;54.324;18.558;2023-02-20T11:05:02;5.10;99.90
42913;DHT22;50720;54.324;18.558;2023-02-20T11:07:34;5.20;99.90
42913;DHT22;50720;54.324;18.558;2023-02-20T11:10:04;5.20;99.90
42913;DHT22;50720;54.324;18.558;2023-02-20T11:12:36;5.30;99.90
42913;DHT22;50720;54.324;18.558;2023-02-20T11:15:11;5.40;99.90
42913;DHT22;50720;54.324;18.558;2023-02-20T11:17:43;5.50;99.90
42913;DHT22;50720;54.324;18.558;2023-02-20T11:20:42;5.50;99.90
42913;DHT22;50720;54.324;18.558;2023-02-20T11:23:33;5.60;99.90
42913;DHT22;50720;54.324;18.558;2023-02-20T11:26:24;5.70;99.90
42913;DHT22;50720;54.324;18.558;2023-02-20T11:28:57;5.80;99.90
42913;DHT22;50720;54.324;18.558;2023-02-20T11:31:28;5.90;99.90
42913;DHT22;50720;54.324;18.558;2023-02-20T11:34:01;6.00;99.90
42913;DHT22;50720;54.324;18.558;2023-02-20T11:36:36;6.00;99.90
42913;DHT22;50720;54.324;18.558;2023-02-20T11:39:23;6.10;99.90
42913;DHT22;50720;54.324;18.558;2023-02-20T11:42:05;6.20;99.90
42913;DHT22;50720;54.324;18.558;2023-02-20T11:44:39;6.30;99.90
42913;DHT22;50720;54.324;18.558;2023-02-20T11:47:26;6.30;99.90
42913;DHT22;50720;54.324;18.558;2023-02-20T11:50:18;6.30;99.90
42913;DHT22;50720;54.324;18.558;2023-02-20T11:52:56;6.40;99.90
42913;DHT22;50720;54.324;18.558;2023-02-20T11:55:26;6.40;99.90
42913;DHT22;50720;54.324;18.558;2023-02-20T11:57:57;6.50;99.90
42913;DHT22;50720;54.324;18.558;2023-02-20T12:00:28;6.50;99.90
42913;DHT22;50720;54.324;18.558;2023-02-20T12:03:11;6.50;99.90
42913;DHT22;50720;54.324;18.558;2023-02-20T12:05:43;6.50;99.90
42913;DHT22;50720;54.324;18.558;2023-02-20T12:08:40;6.50;99.90
42913;DHT22;50720;54.324;18.558;2023-02-20T12:11:13;6.50;99.90
42913;DHT22;50720;54.324;18.558;2023-02-20T12:13:44;6.50;99.90
42913;DHT22;50720;54.324;18.558;2023-02-20T12:16:44;6.50;99.90
42913;DHT22;50720;54.324;18.558;2023-02-20T12:19:24;6.50;99.90
42913;DHT22;50720;54.324;18.558;2023-02-20T12:22:05;6.50;99.90
42913;DHT22;50720;54.324;18.558;2023-02-20T12:24:50;6.50;99.90
42913;DHT22;50720;54.324;18.558;2023-02-20T12:27:40;6.50;99.90
42913;DHT22;50720;54.324;18.558;2023-02-20T12:30:24;6.60;99.90
42913;DHT22;50720;54.324;18.558;2023-02-20T12:33:05;6.60;99.90
42913;DHT22;50720;54.324;18.558;2023-02-20T12:35:55;6.60;99.90
42913;DHT22;50720;54.324;18.558;2023-02-20T12:38:40;6.70;99.90
42913;DHT22;50720;54.324;18.558;2023-02-20T12:41:28;6.70;99.90
42913;DHT22;50720;54.324;18.558;2023-02-20T12:44:19;6.80;99.90
42913;DHT22;50720;54.324;18.558;2023-02-20T12:46:57;6.80;99.90
42913;DHT22;50720;54.324;18.558;2023-02-20T12:49:52;6.80;99.90
42913;DHT22;50720;54.324;18.558;2023-02-20T12:52:37;6.80;99.90
42913;DHT22;50720;54.324;18.558;2023-02-20T12:55:20;6.90;99.90
42913;DHT22;50720;54.324;18.558;2023-02-20T12:58:02;6.90;99.90
42913;DHT22;50720;54.324;18.558;2023-02-20T13:00:38;6.90;99.90
42913;DHT22;50720;54.324;18.558;2023-02-20T13:03:12;7.00;99.90
42913;DHT22;50720;54.324;18.558;2023-02-20T13:05:44;7.00;99.90
42913;DHT22;50720;54.324;18.558;2023-02-20T13:08:20;7.00;99.90
42913;DHT22;50720;54.324;18.558;2023-02-20T13:10:56;7.10;99.90
42913;DHT22;50720;54.324;18.558;2023-02-20T13:13:34;7.10;99.90
42913;DHT22;50720;54.324;18.558;2023-02-20T13:16:11;7.10;99.90
42913;DHT22;50720;54.324;18.558;2023-02-20T13:18:46;7.00;99.90
42913;DHT22;50720;54.324;18.558;2023-02-20T13:21:29;7.20;99.90
42913;DHT22;50720;54.324;18.558;2023-02-20T13:26:49;7.10;99.90
42913;DHT22;50720;54.324;18.558;2023-02-20T13:29:20;7.10;99.90
42913;DHT22;50720;54.324;18.558;2023-02-20T13:31:52;7.20;99.90
42913;DHT22;50720;54.324;18.558;2023-02-20T13:34:27;7.10;99.90
42913;DHT22;50720;54.324;18.558;2023-02-20T13:36:58;7.10;99.90
42913;DHT22;50720;54.324;18.558;2023-02-20T13:39:45;7.10;99.90
42913;DHT22;50720;54.324;18.558;2023-02-20T13:42:28;7.10;99.90
42913;DHT22;50720;54.324;18.558;2023-02-20T13:44:58;7.10;99.90
42913;DHT22;50720;54.324;18.558;2023-02-20T13:47:35;7.20;99.90
42913;DHT22;50720;54.324;18.558;2023-02-20T13:50:26;7.10;99.90
42913;DHT22;50720;54.324;18.558;2023-02-20T13:53:01;7.20;99.90
42913;DHT22;50720;54.324;18.558;2023-02-20T13:55:31;7.20;99.90
42913;DHT22;50720;54.324;18.558;2023-02-20T13:58:07;7.20;99.90
42913;DHT22;50720;54.324;18.558;2023-02-20T14:00:50;7.20;99.90
42913;DHT22;50720;54.324;18.558;2023-02-20T14:03:22;7.20;99.90
42913;DHT22;50720;54.324;18.558;2023-02-20T14:06:04;7.20;99.90
42913;DHT22;50720;54.324;18.558;2023-02-20T14:08:35;7.20;99.90
42913;DHT22;50720;54.324;18.558;2023-02-20T14:11:07;7.20;99.90
42913;DHT22;50720;54.324;18.558;2023-02-20T14:13:40;7.20;99.90
42913;DHT22;50720;54.324;18.558;2023-02-20T14:16:30;7.20;99.90
42913;DHT22;50720;54.324;18.558;2023-02-20T14:19:06;7.20;99.90
42913;DHT22;50720;54.324;18.558;2023-02-20T14:21:37;7.30;99.90
42913;DHT22;50720;54.324;18.558;2023-02-20T14:24:16;7.30;99.90
42913;DHT22;50720;54.324;18.558;2023-02-20T14:26:46;7.30;99.90
42913;DHT22;50720;54.324;18.558;2023-02-20T14:29:26;7.30;99.90
42913;DHT22;50720;54.324;18.558;2023-02-20T14:31:56;7.30;99.90
42913;DHT22;50720;54.324;18.558;2023-02-20T14:34:31;7.20;99.90
42913;DHT22;50720;54.324;18.558;2023-02-20T14:37:08;7.30;99.90
42913;DHT22;50720;54.324;18.558;2023-02-20T14:39:47;7.30;99.90
42913;DHT22;50720;54.324;18.558;2023-02-20T14:42:21;7.30;99.90
42913;DHT22;50720;54.324;18.558;2023-02-20T14:44:57;7.40;99.90
42913;DHT22;50720;54.324;18.558;2023-02-20T14:47:27;7.40;99.90
42913;DHT22;50720;54.324;18.558;2023-02-20T14:50:12;7.40;99.90
42913;DHT22;50720;54.324;18.558;2023-02-20T14:52:43;7.40;99.90
42913;DHT22;50720;54.324;18.558;2023-02-20T14:55:16;7.40;99.90
42913;DHT22;50720;54.324;18.558;2023-02-20T14:57:48;7.30;99.90
42913;DHT22;50720;54.324;18.558;2023-02-20T15:00:33;7.40;99.90
42913;DHT22;50720;54.324;18.558;2023-02-20T15:03:08;7.40;99.90
42913;DHT22;50720;54.324;18.558;2023-02-20T15:06:00;7.40;99.90
42913;DHT22;50720;54.324;18.558;2023-02-20T15:08:31;7.40;99.90
42913;DHT22;50720;54.324;18.558;2023-02-20T15:11:06;7.40;99.90
42913;DHT22;50720;54.324;18.558;2023-02-20T15:13:39;7.50;99.90
42913;DHT22;50720;54.324;18.558;2023-02-20T15:16:16;7.40;99.90
42913;DHT22;50720;54.324;18.558;2023-02-20T15:18:48;7.40;99.90
42913;DHT22;50720;54.324;18.558;2023-02-20T15:21:34;7.40;99.90
42913;DHT22;50720;54.324;18.558;2023-02-20T15:24:26;7.40;99.90
42913;DHT22;50720;54.324;18.558;2023-02-20T15:27:10;7.50;99.90
42913;DHT22;50720;54.324;18.558;2023-02-20T15:29:42;7.50;99.90
42913;DHT22;50720;54.324;18.558;2023-02-20T15:32:23;7.50;99.90
42913;DHT22;50720;54.324;18.558;2023-02-20T15:34:55;7.50;99.90
42913;DHT22;50720;54.324;18.558;2023-02-20T15:37:28;7.60;99.90
42913;DHT22;50720;54.324;18.558;2023-02-20T15:40:18;7.70;99.90
42913;DHT22;50720;54.324;18.558;2023-02-20T15:42:49;7.70;99.90
42913;DHT22;50720;54.324;18.558;2023-02-20T15:45:25;7.70;99.90
42913;DHT22;50720;54.324;18.558;2023-02-20T15:47:56;7.70;99.90
42913;DHT22;50720;54.324;18.558;2023-02-20T15:50:26;7.60;99.90
42913;DHT22;50720;54.324;18.558;2023-02-20T15:52:55;7.60;99.90
42913;DHT22;50720;54.324;18.558;2023-02-20T15:55:26;7.60;99.90
42913;DHT22;50720;54.324;18.558;2023-02-20T15:57:58;7.60;99.90
42913;DHT22;50720;54.324;18.558;2023-02-20T16:00:32;7.60;99.90
42913;DHT22;50720;54.324;18.558;2023-02-20T16:03:02;7.60;99.90
42913;DHT22;50720;54.324;18.558;2023-02-20T16:05:32;7.60;99.90
42913;DHT22;50720;54.324;18.558;2023-02-20T16:08:02;7.50;99.90
42913;DHT22;50720;54.324;18.558;2023-02-20T16:10:31;7.50;99.90
42913;DHT22;50720;54.324;18.558;2023-02-20T16:13:01;7.40;99.90
42913;DHT22;50720;54.324;18.558;2023-02-20T16:15:30;7.50;99.90
42913;DHT22;50720;54.324;18.558;2023-02-20T16:18:00;7.40;99.90
42913;DHT22;50720;54.324;18.558;2023-02-20T16:20:31;7.40;99.90
42913;DHT22;50720;54.324;18.558;2023-02-20T16:23:01;7.40;99.90
42913;DHT22;50720;54.324;18.558;2023-02-20T16:25:31;7.40;99.90